createdAt,value
2023-05-16T00:00:56.035Z,1.20
2023-05-16T00:02:57.573Z,0.80
2023-05-16T00:05:02.345Z,1.00
2023-05-16T00:07:03.791Z,1.63
2023-05-16T00:11:09.171Z,0.85
2023-05-16T00:13:10.626Z,0.95
2023-05-16T00:15:15.412Z,1.02
2023-05-16T00:17:20.563Z,1.00
2023-05-16T00:19:42.113Z,1.33
2023-05-16T00:21:44.845Z,0.65
2023-05-16T00:23:46.543Z,1.40
2023-05-16T00:25:50.888Z,0.80
2023-05-16T00:27:53.841Z,1.25
2023-05-16T00:29:55.812Z,0.93
2023-05-16T00:32:00.305Z,1.17
2023-05-16T00:34:01.786Z,0.75
2023-05-16T00:36:06.118Z,1.25
2023-05-16T00:38:07.623Z,0.77
2023-05-16T00:40:09.310Z,0.70
2023-05-16T00:42:10.738Z,0.80
2023-05-16T00:44:15.062Z,1.02
2023-05-16T00:46:16.716Z,0.73
2023-05-16T00:48:18.750Z,0.90
2023-05-16T00:50:23.025Z,1.17
2023-05-16T00:52:24.887Z,0.60
2023-05-16T00:54:30.144Z,0.90
2023-05-16T00:56:32.002Z,1.05
2023-05-16T00:58:34.020Z,1.00
2023-05-16T01:00:38.062Z,0.75
2023-05-16T01:02:42.432Z,0.80
2023-05-16T01:04:48.444Z,0.70
2023-05-16T01:06:49.875Z,0.98
2023-05-16T01:08:54.462Z,0.80
2023-05-16T01:10:58.472Z,0.70
2023-05-16T01:13:05.711Z,1.20
2023-05-16T01:15:25.148Z,1.23
2023-05-16T01:17:33.306Z,1.20
2023-05-16T01:19:47.081Z,0.95
2023-05-16T01:22:21.668Z,0.95
2023-05-16T01:24:27.387Z,0.77
2023-05-16T01:26:30.105Z,0.95
2023-05-16T01:28:32.503Z,1.15
2023-05-16T01:30:52.630Z,0.90
2023-05-16T01:35:01.147Z,0.70
2023-05-16T01:39:07.318Z,0.95
2023-05-16T01:41:43.709Z,1.00
2023-05-16T01:43:49.321Z,1.02
2023-05-16T01:46:00.521Z,1.00
2023-05-16T01:48:04.646Z,1.20
2023-05-16T01:50:17.789Z,1.38
2023-05-16T01:52:42.690Z,1.20
2023-05-16T01:54:58.688Z,1.08
2023-05-16T01:57:09.922Z,0.90
2023-05-16T01:59:15.061Z,1.75
2023-05-16T02:01:20.737Z,0.85
2023-05-16T02:03:44.001Z,1.13
2023-05-16T02:05:48.938Z,0.73
2023-05-16T02:07:57.551Z,0.80
2023-05-16T02:10:02.408Z,0.80
2023-05-16T02:12:07.634Z,0.80
2023-05-16T02:14:15.349Z,1.58
2023-05-16T02:16:20.189Z,1.58
2023-05-16T02:18:25.485Z,1.30
2023-05-16T02:20:31.847Z,0.68
2023-05-16T02:22:37.743Z,0.90
2023-05-16T02:24:42.684Z,1.42
2023-05-16T02:26:47.229Z,0.77
2023-05-16T02:28:51.422Z,0.60
2023-05-16T02:30:57.419Z,0.80
2023-05-16T02:33:01.803Z,1.23
2023-05-16T02:35:22.575Z,0.80
2023-05-16T02:37:24.309Z,0.90
2023-05-16T02:39:44.214Z,0.90
2023-05-16T02:43:52.702Z,0.98
2023-05-16T02:45:56.984Z,0.68
2023-05-16T02:47:58.655Z,0.90
2023-05-16T02:50:03.831Z,1.17
2023-05-16T02:52:05.671Z,1.15
2023-05-16T02:54:09.342Z,1.00
2023-05-16T02:56:29.390Z,0.77
2023-05-16T02:58:30.816Z,1.20
2023-05-16T03:00:32.240Z,0.90
2023-05-16T03:02:52.335Z,0.73
2023-05-16T03:04:59.951Z,1.10
2023-05-16T03:07:20.052Z,0.70
2023-05-16T03:11:26.823Z,1.30
2023-05-16T03:13:30.126Z,1.02
2023-05-16T03:15:31.712Z,0.90
2023-05-16T03:17:33.329Z,0.98
2023-05-16T03:19:53.750Z,0.82
2023-05-16T03:21:55.643Z,0.90
2023-05-16T03:24:00.154Z,0.82
2023-05-16T03:26:21.354Z,1.08
2023-05-16T03:28:22.953Z,0.90
2023-05-16T03:30:24.654Z,1.25
2023-05-16T03:32:28.757Z,0.90
2023-05-16T03:34:48.565Z,1.13
2023-05-16T03:36:52.753Z,1.02
2023-05-16T03:38:56.975Z,0.95
2023-05-16T03:40:59.016Z,0.90
2023-05-16T03:43:00.548Z,0.95
2023-05-16T03:45:02.048Z,1.10
2023-05-16T03:47:03.700Z,0.73
2023-05-16T03:49:07.980Z,0.68
2023-05-16T03:51:09.434Z,0.80
2023-05-16T03:53:13.732Z,1.27
2023-05-16T03:55:15.445Z,1.38
2023-05-16T03:57:17.155Z,1.40
2023-05-16T03:59:39.029Z,1.08
2023-05-16T04:01:40.550Z,0.85
2023-05-16T04:03:42.173Z,1.50
2023-05-16T04:05:43.673Z,0.98
2023-05-16T04:07:47.885Z,0.80
2023-05-16T04:10:09.180Z,0.90
2023-05-16T04:12:10.742Z,0.70
2023-05-16T04:14:12.224Z,1.25
2023-05-16T04:16:13.900Z,1.02
2023-05-16T04:18:18.262Z,0.70
2023-05-16T04:20:22.484Z,1.40
2023-05-16T04:22:24.188Z,1.40
2023-05-16T04:24:28.824Z,0.95
2023-05-16T04:26:48.661Z,1.13
2023-05-16T04:30:57.130Z,1.83
2023-05-16T04:33:01.705Z,0.77
2023-05-16T04:35:06.136Z,1.02
2023-05-16T04:37:08.376Z,0.95
2023-05-16T04:39:10.059Z,0.82
2023-05-16T04:41:14.558Z,1.30
2023-05-16T04:45:20.005Z,1.00
2023-05-16T04:47:21.769Z,0.70
2023-05-16T04:49:23.492Z,1.30
2023-05-16T04:51:27.615Z,1.40
2023-05-16T04:53:29.174Z,0.93
2023-05-16T04:55:30.818Z,0.77
2023-05-16T04:57:39.414Z,0.93
2023-05-16T04:59:45.196Z,1.90
2023-05-16T05:01:50.607Z,1.52
2023-05-16T05:03:58.295Z,0.80
2023-05-16T05:06:02.500Z,1.25
2023-05-16T05:08:10.571Z,0.90
2023-05-16T05:10:14.574Z,1.00
2023-05-16T05:12:20.985Z,1.15
2023-05-16T05:14:24.892Z,1.10
2023-05-16T05:16:31.876Z,1.35
2023-05-16T05:18:38.288Z,0.80
2023-05-16T05:20:42.062Z,0.82
2023-05-16T05:22:45.695Z,1.02
2023-05-16T05:24:49.383Z,1.08
2023-05-16T05:26:56.083Z,0.80
2023-05-16T05:29:05.402Z,0.80
2023-05-16T05:31:13.247Z,1.40
2023-05-16T05:33:19.125Z,1.10
2023-05-16T05:35:21.356Z,0.80
2023-05-16T05:37:26.383Z,0.68
2023-05-16T05:39:27.879Z,0.77
2023-05-16T05:41:32.017Z,2.28
2023-05-16T05:43:36.430Z,1.85
2023-05-16T05:45:40.968Z,1.50
2023-05-16T05:47:42.952Z,1.38
2023-05-16T05:49:44.650Z,1.58
2023-05-16T05:51:51.890Z,1.25
2023-05-16T05:53:54.284Z,0.77
2023-05-16T05:56:14.603Z,1.85
2023-05-16T05:58:18.118Z,1.38
2023-05-16T06:00:19.803Z,1.65
2023-05-16T06:04:27.774Z,1.23
2023-05-16T06:06:29.461Z,1.67
2023-05-16T06:08:49.552Z,1.73
2023-05-16T06:10:54.884Z,1.17
2023-05-16T06:12:59.103Z,1.02
2023-05-16T06:15:00.550Z,1.20
2023-05-16T06:17:05.121Z,1.00
2023-05-16T06:19:09.995Z,1.08
2023-05-16T06:21:11.625Z,0.90
2023-05-16T06:23:16.101Z,0.60
2023-05-16T06:25:20.174Z,1.13
2023-05-16T06:27:21.614Z,1.20
2023-05-16T06:29:41.752Z,0.95
2023-05-16T06:31:43.319Z,1.20
2023-05-16T06:33:47.921Z,0.68
2023-05-16T06:35:52.520Z,0.88
2023-05-16T06:37:54.024Z,0.88
2023-05-16T06:39:56.028Z,1.27
2023-05-16T06:42:00.161Z,1.02
2023-05-16T06:44:01.842Z,1.00
2023-05-16T06:46:06.437Z,0.73
2023-05-16T06:48:08.181Z,1.20
2023-05-16T06:50:10.920Z,1.33
2023-05-16T06:52:12.672Z,0.93
2023-05-16T06:54:14.155Z,1.25
2023-05-16T06:56:18.304Z,1.05
2023-05-16T06:58:22.648Z,1.05
2023-05-16T07:00:27.219Z,1.00
2023-05-16T07:02:47.330Z,0.90
2023-05-16T07:04:48.910Z,0.90
2023-05-16T07:06:50.600Z,0.98
2023-05-16T07:08:52.163Z,1.00
2023-05-16T07:10:56.229Z,1.30
2023-05-16T07:13:01.567Z,1.38
2023-05-16T07:15:21.985Z,1.00
2023-05-16T07:17:26.528Z,1.48
2023-05-16T07:19:28.166Z,1.80
2023-05-16T07:21:29.973Z,1.60
2023-05-16T07:23:49.972Z,0.82
2023-05-16T07:25:52.050Z,1.00
2023-05-16T07:27:53.784Z,0.97
2023-05-16T07:29:58.113Z,0.93
2023-05-16T07:31:59.710Z,1.13
2023-05-16T07:34:01.401Z,1.02
2023-05-16T07:36:16.021Z,1.42
2023-05-16T07:38:21.633Z,0.90
2023-05-16T07:40:28.336Z,0.95
2023-05-16T07:42:33.176Z,1.10
2023-05-16T07:44:34.942Z,1.00
2023-05-16T07:46:39.857Z,0.90
2023-05-16T07:48:44.297Z,0.93
2023-05-16T07:50:46.055Z,0.90
2023-05-16T07:52:47.598Z,1.10
2023-05-16T07:54:52.091Z,1.15
2023-05-16T07:56:56.284Z,0.88
2023-05-16T07:59:16.484Z,1.60
2023-05-16T08:01:18.276Z,0.95
2023-05-16T08:03:24.944Z,0.75
2023-05-16T08:05:27.366Z,0.98
2023-05-16T08:07:32.337Z,0.80
2023-05-16T08:09:36.649Z,1.10
2023-05-16T08:11:48.752Z,0.65
2023-05-16T08:13:55.689Z,0.70
2023-05-16T08:15:58.000Z,1.02
2023-05-16T08:18:02.150Z,0.82
2023-05-16T08:20:09.311Z,0.95
2023-05-16T08:22:12.844Z,0.70
2023-05-16T08:24:18.348Z,0.93
2023-05-16T08:26:40.802Z,0.60
2023-05-16T08:28:44.784Z,1.02
2023-05-16T08:30:51.678Z,0.60
2023-05-16T08:32:58.151Z,1.00
2023-05-16T08:35:00.951Z,1.00
2023-05-16T08:37:05.362Z,1.08
2023-05-16T08:39:14.260Z,0.52
2023-05-16T08:41:20.389Z,1.27
2023-05-16T08:43:27.080Z,0.50
2023-05-16T08:45:32.955Z,1.13
2023-05-16T08:47:36.820Z,0.70
2023-05-16T08:49:39.695Z,0.80
2023-05-16T08:51:41.428Z,0.77
2023-05-16T08:53:50.153Z,0.88
2023-05-16T08:55:52.940Z,0.70
2023-05-16T08:58:13.443Z,0.90
2023-05-16T09:00:33.928Z,1.00
2023-05-16T09:02:39.537Z,0.82
2023-05-16T09:04:45.522Z,0.70
2023-05-16T09:08:51.299Z,0.60
2023-05-16T09:10:52.919Z,0.65
2023-05-16T09:12:57.469Z,0.60
2023-05-16T09:14:59.569Z,0.93
2023-05-16T09:17:10.798Z,0.73
2023-05-16T09:19:16.615Z,1.13
2023-05-16T09:21:18.260Z,0.60
2023-05-16T09:23:24.318Z,0.57
2023-05-16T09:25:44.559Z,0.60
2023-05-16T09:27:49.058Z,0.75
2023-05-16T09:29:53.380Z,1.02
2023-05-16T09:32:04.508Z,0.60
2023-05-16T09:34:11.230Z,1.00
2023-05-16T09:36:14.205Z,0.85
2023-05-16T09:38:18.865Z,0.70
2023-05-16T09:40:23.766Z,0.75
2023-05-16T09:42:28.045Z,0.68
2023-05-16T09:44:32.479Z,0.80
2023-05-16T09:46:34.619Z,0.52
2023-05-16T09:48:41.895Z,0.60
2023-05-16T09:50:55.066Z,0.90
2023-05-16T09:52:59.719Z,0.50
2023-05-16T09:55:02.646Z,0.57
2023-05-16T09:59:11.205Z,0.60
2023-05-16T10:01:13.064Z,0.60
2023-05-16T10:03:15.413Z,0.60
2023-05-16T10:05:19.765Z,0.73
2023-05-16T10:07:21.840Z,0.60
2023-05-16T10:09:42.294Z,0.50
2023-05-16T10:11:44.731Z,0.90
2023-05-16T10:13:50.596Z,0.47
2023-05-16T10:15:58.691Z,0.70
2023-05-16T10:18:03.897Z,0.65
2023-05-16T10:20:06.969Z,1.58
2023-05-16T10:22:12.048Z,0.93
2023-05-16T10:24:18.015Z,1.00
2023-05-16T10:26:21.381Z,0.90
2023-05-16T10:28:27.069Z,0.90
2023-05-16T10:30:28.710Z,1.05
2023-05-16T10:32:30.686Z,0.93
2023-05-16T10:34:32.504Z,0.73
2023-05-16T10:36:36.942Z,1.27
2023-05-16T10:38:41.674Z,0.90
2023-05-16T10:40:43.340Z,0.80
2023-05-16T10:42:54.630Z,0.95
2023-05-16T10:45:08.942Z,0.90
2023-05-16T10:47:18.618Z,1.38
2023-05-16T10:49:24.271Z,0.95
2023-05-16T10:51:34.016Z,1.42
2023-05-16T10:53:38.141Z,1.10
2023-05-16T10:55:39.942Z,1.00
2023-05-16T10:57:44.662Z,1.25
2023-05-16T10:59:49.501Z,1.10
2023-05-16T11:02:23.561Z,0.70
2023-05-16T11:04:45.219Z,1.20
2023-05-16T11:06:49.706Z,1.08
2023-05-16T11:09:10.204Z,1.00
2023-05-16T11:11:36.430Z,1.10
2023-05-16T11:13:53.918Z,1.08
2023-05-16T11:16:16.615Z,1.00
2023-05-16T11:18:28.662Z,1.43
2023-05-16T11:20:36.312Z,1.30
2023-05-16T11:23:20.844Z,1.48
2023-05-16T11:25:36.300Z,1.00
2023-05-16T11:27:50.050Z,0.85
2023-05-16T11:29:53.378Z,1.33
2023-05-16T11:32:24.068Z,1.10
2023-05-16T11:34:27.651Z,0.93
2023-05-16T11:36:40.257Z,1.48
2023-05-16T11:38:49.949Z,1.05
2023-05-16T11:40:57.053Z,1.13
2023-05-16T11:43:07.278Z,2.05
2023-05-16T11:45:17.732Z,1.20
2023-05-16T11:47:26.929Z,0.90
2023-05-16T11:49:38.522Z,1.17
2023-05-16T11:51:58.949Z,1.60
2023-05-16T11:54:02.050Z,1.10
2023-05-16T11:56:08.414Z,1.10
2023-05-16T11:58:10.318Z,1.55
2023-05-16T12:00:16.420Z,1.00
2023-05-16T12:02:17.867Z,1.20
2023-05-16T12:04:20.903Z,1.00
2023-05-16T12:06:22.845Z,1.45
2023-05-16T12:08:26.906Z,1.15
2023-05-16T12:10:31.551Z,1.27
2023-05-16T12:12:36.580Z,1.13
2023-05-16T12:14:38.139Z,1.00
2023-05-16T12:16:42.408Z,1.00
2023-05-16T12:19:04.855Z,1.00
2023-05-16T12:23:11.428Z,0.90
2023-05-16T12:25:30.230Z,1.00
2023-05-16T12:27:35.266Z,0.90
2023-05-16T12:29:40.101Z,1.30
2023-05-16T12:32:00.596Z,0.95
2023-05-16T12:34:05.207Z,1.08
2023-05-16T12:36:13.469Z,1.15
2023-05-16T12:38:15.610Z,1.10
2023-05-16T12:40:17.322Z,1.30
2023-05-16T12:42:21.820Z,1.48
2023-05-16T12:44:25.102Z,1.20
2023-05-16T12:46:26.659Z,0.90
2023-05-16T12:48:37.448Z,1.45
2023-05-16T12:50:39.610Z,1.30
2023-05-16T12:52:49.695Z,1.38
2023-05-16T12:54:53.916Z,1.13
2023-05-16T12:56:55.863Z,1.50
2023-05-16T12:58:57.492Z,1.55
2023-05-16T13:01:02.096Z,1.88
2023-05-16T13:03:07.635Z,3.17
2023-05-16T13:05:10.251Z,1.60
2023-05-16T13:07:12.371Z,1.45
2023-05-16T13:09:13.916Z,2.00
2023-05-16T13:11:15.488Z,1.38
2023-05-16T13:13:28.809Z,1.27
2023-05-16T13:15:40.142Z,1.50
2023-05-16T13:17:44.026Z,2.22
2023-05-16T13:19:49.109Z,2.00
2023-05-16T13:21:53.897Z,1.70
2023-05-16T13:23:59.293Z,1.27
2023-05-16T13:26:00.788Z,1.50
2023-05-16T13:28:24.058Z,2.05
2023-05-16T13:30:25.733Z,1.90
2023-05-16T13:32:27.409Z,2.05
2023-05-16T13:34:47.492Z,2.05
2023-05-16T13:36:54.713Z,2.05
2023-05-16T13:38:59.737Z,2.70
2023-05-16T13:41:01.325Z,2.33
2023-05-16T13:43:03.089Z,1.95
2023-05-16T13:45:07.960Z,2.35
2023-05-16T13:47:28.285Z,2.17
2023-05-16T13:49:29.913Z,2.22
2023-05-16T13:51:34.166Z,1.90
2023-05-16T13:53:35.959Z,2.75
2023-05-16T13:55:56.243Z,2.78
2023-05-16T13:58:00.422Z,2.72
2023-05-16T14:02:26.256Z,2.92
2023-05-16T14:04:30.862Z,2.45
2023-05-16T14:06:34.918Z,2.88
2023-05-16T14:08:39.895Z,3.08
2023-05-16T14:10:44.545Z,3.97
2023-05-16T14:12:46.269Z,2.80
2023-05-16T14:15:08.715Z,3.10
2023-05-16T14:17:13.842Z,2.63
2023-05-16T14:19:20.590Z,3.17
2023-05-16T14:21:35.649Z,3.35
2023-05-16T14:26:19.587Z,3.42
2023-05-16T14:28:31.605Z,2.70
2023-05-16T14:30:47.920Z,2.72
2023-05-16T14:33:01.788Z,2.70
2023-05-16T14:35:12.253Z,2.40
2023-05-16T14:37:24.748Z,2.90
2023-05-16T14:39:38.194Z,3.65
2023-05-16T14:41:56.297Z,3.03
2023-05-16T14:44:06.106Z,2.53
2023-05-16T14:46:36.208Z,3.30
2023-05-16T14:48:44.613Z,2.50
2023-05-16T14:50:53.574Z,3.33
2023-05-16T14:52:55.479Z,2.63
2023-05-16T14:55:15.892Z,3.65
2023-05-16T14:57:23.410Z,2.63
2023-05-16T14:59:25.068Z,2.58
2023-05-16T15:01:27.082Z,3.20
2023-05-16T15:03:28.639Z,3.13
2023-05-16T15:05:48.938Z,2.33
2023-05-16T15:07:53.530Z,2.70
2023-05-16T15:09:57.784Z,2.08
2023-05-16T15:12:01.969Z,2.40
2023-05-16T15:14:06.411Z,2.20
2023-05-16T15:16:11.247Z,2.40
2023-05-16T15:18:18.983Z,2.60
2023-05-16T15:20:22.643Z,2.65
2023-05-16T15:24:28.440Z,3.40
2023-05-16T15:26:29.997Z,2.33
2023-05-16T15:28:31.488Z,2.40
2023-05-16T15:30:33.005Z,2.70
2023-05-16T15:32:34.586Z,2.72
2023-05-16T15:34:39.363Z,3.17
2023-05-16T15:36:43.674Z,3.17
2023-05-16T15:38:45.885Z,2.25
2023-05-16T15:41:19.691Z,2.63
2023-05-16T15:43:33.822Z,2.75
2023-05-16T15:45:40.099Z,2.65
2023-05-16T15:47:44.820Z,2.85
2023-05-16T15:49:49.298Z,2.35
2023-05-16T15:51:51.405Z,2.58
2023-05-16T15:53:55.732Z,2.90
2023-05-16T15:56:00.098Z,2.83
2023-05-16T15:58:05.513Z,2.70
2023-05-16T16:00:26.272Z,2.90
2023-05-16T16:02:30.477Z,2.65
2023-05-16T16:04:34.959Z,3.15
2023-05-16T16:06:36.456Z,2.58
2023-05-16T16:08:38.085Z,2.33
2023-05-16T16:10:58.563Z,2.92
2023-05-16T16:13:01.275Z,2.83
2023-05-16T16:15:06.409Z,2.97
2023-05-16T16:17:08.131Z,3.03
2023-05-16T16:19:12.576Z,3.38
2023-05-16T16:21:16.968Z,2.85
2023-05-16T16:23:21.836Z,2.92
2023-05-16T16:25:23.369Z,3.58
2023-05-16T16:27:24.946Z,3.75
2023-05-16T16:29:29.159Z,2.58
2023-05-16T16:31:31.004Z,3.08
2023-05-16T16:33:35.513Z,3.03
2023-05-16T16:35:55.689Z,3.15
2023-05-16T16:38:06.158Z,3.30
2023-05-16T16:40:09.165Z,2.97
2023-05-16T16:42:30.511Z,3.00
2023-05-16T16:44:34.735Z,3.42
2023-05-16T16:46:39.128Z,2.97
2023-05-16T16:48:40.763Z,3.22
2023-05-16T16:50:45.073Z,3.67
2023-05-16T16:52:46.617Z,3.50
2023-05-16T16:54:50.881Z,3.22
2023-05-16T16:56:56.411Z,3.13
2023-05-16T16:58:58.060Z,3.13
2023-05-16T17:00:59.696Z,3.15
2023-05-16T17:03:03.817Z,3.53
2023-05-16T17:05:06.384Z,3.95
2023-05-16T17:07:11.011Z,3.70
2023-05-16T17:09:17.844Z,3.75
2023-05-16T17:11:23.316Z,2.85
2023-05-16T17:13:24.821Z,3.67
2023-05-16T17:15:26.585Z,2.95
2023-05-16T17:17:31.051Z,3.30
2023-05-16T17:19:35.947Z,3.72
2023-05-16T17:21:37.678Z,3.45
2023-05-16T17:23:44.007Z,4.10
2023-05-16T17:25:52.283Z,3.55
2023-05-16T17:28:05.036Z,3.75
2023-05-16T17:30:19.899Z,4.72
2023-05-16T17:32:37.482Z,3.80
2023-05-16T17:34:57.267Z,4.05
2023-05-16T17:37:13.224Z,4.50
2023-05-16T17:39:25.826Z,4.25
2023-05-16T17:41:43.250Z,3.95
2023-05-16T17:43:52.798Z,3.85
2023-05-16T17:46:20.842Z,3.60
2023-05-16T17:48:32.734Z,3.53
2023-05-16T17:50:44.778Z,3.92
2023-05-16T17:52:58.725Z,3.88
2023-05-16T17:55:08.052Z,3.40
2023-05-16T17:57:20.983Z,3.85
2023-05-16T17:59:46.442Z,3.60
2023-05-16T18:01:52.279Z,4.10
2023-05-16T18:03:56.663Z,4.30
2023-05-16T18:06:16.972Z,4.72
2023-05-16T18:08:21.904Z,3.67
2023-05-16T18:10:29.605Z,4.20
2023-05-16T18:12:41.703Z,3.75
2023-05-16T18:14:45.814Z,4.18
2023-05-16T18:16:50.579Z,3.65
2023-05-16T18:18:55.107Z,3.97
2023-05-16T18:20:56.830Z,3.47
2023-05-16T18:22:58.413Z,3.67
2023-05-16T18:25:00.074Z,3.83
2023-05-16T18:27:19.967Z,4.47
2023-05-16T18:29:21.624Z,3.78
2023-05-16T18:31:26.124Z,4.40
2023-05-16T18:33:31.143Z,4.18
2023-05-16T18:35:51.698Z,3.90
2023-05-16T18:37:56.072Z,4.10
2023-05-16T18:39:57.640Z,4.35
2023-05-16T18:41:59.258Z,3.88
2023-05-16T18:44:00.725Z,4.55
2023-05-16T18:46:04.826Z,4.50
2023-05-16T18:48:09.317Z,4.03
2023-05-16T18:50:14.282Z,4.25
2023-05-16T18:52:15.872Z,3.95
2023-05-16T18:54:17.445Z,4.18
2023-05-16T18:56:37.720Z,3.90
2023-05-16T18:58:42.660Z,4.10
2023-05-16T19:00:47.409Z,4.88
2023-05-16T19:02:48.968Z,4.43
2023-05-16T19:04:50.727Z,4.30
2023-05-16T19:06:56.374Z,3.88
2023-05-16T19:09:16.416Z,4.03
2023-05-16T19:11:21.915Z,3.60
2023-05-16T19:13:26.216Z,4.78
2023-05-16T19:15:30.639Z,4.65
2023-05-16T19:17:34.748Z,4.55
2023-05-16T19:19:39.207Z,4.07
2023-05-16T19:21:43.895Z,4.97
2023-05-16T19:23:46.070Z,4.13
2023-05-16T19:25:49.044Z,4.32
2023-05-16T19:27:53.666Z,4.82
2023-05-16T19:29:58.157Z,4.40
2023-05-16T19:32:02.674Z,5.07
2023-05-16T19:34:06.915Z,4.68
2023-05-16T19:36:11.754Z,4.57
2023-05-16T19:38:13.202Z,4.57
2023-05-16T19:40:17.248Z,4.00
2023-05-16T19:42:21.906Z,4.95
2023-05-16T19:44:26.286Z,4.32
2023-05-16T19:46:28.060Z,4.68
2023-05-16T19:48:29.740Z,4.82
2023-05-16T19:50:34.476Z,4.65
2023-05-16T19:52:38.601Z,4.70
2023-05-16T19:54:41.346Z,4.22
2023-05-16T19:56:43.018Z,4.38
2023-05-16T19:59:02.892Z,4.82
2023-05-16T20:03:14.589Z,4.40
2023-05-16T20:05:22.425Z,4.75
2023-05-16T20:07:24.495Z,4.80
2023-05-16T20:09:28.906Z,3.92
2023-05-16T20:11:33.336Z,4.70
2023-05-16T20:13:55.616Z,4.97
2023-05-16T20:15:59.666Z,4.85
2023-05-16T20:18:01.574Z,5.38
2023-05-16T20:20:07.091Z,4.72
2023-05-16T20:22:27.393Z,7.47
2023-05-16T20:24:31.766Z,5.43
2023-05-16T20:26:33.243Z,5.03
2023-05-16T20:28:34.846Z,4.40
2023-05-16T20:30:55.469Z,5.40
2023-05-16T20:32:57.751Z,4.65
2023-05-16T20:35:04.576Z,4.80
2023-05-16T20:37:06.063Z,4.93
2023-05-16T20:39:09.106Z,4.57
2023-05-16T20:41:10.984Z,5.72
2023-05-16T20:43:12.555Z,6.03
2023-05-16T20:45:16.820Z,5.13
2023-05-16T20:47:25.546Z,6.10
2023-05-16T20:49:41.730Z,5.45
2023-05-16T20:51:52.124Z,5.57
2023-05-16T20:54:02.374Z,6.65
2023-05-16T20:56:09.879Z,4.72
2023-05-16T20:58:32.211Z,4.75
2023-05-16T21:02:38.427Z,5.03
2023-05-16T21:04:47.518Z,6.07
2023-05-16T21:06:55.311Z,5.18
2023-05-16T21:08:58.382Z,4.72
2023-05-16T21:11:03.301Z,5.50
2023-05-16T21:13:11.478Z,5.47
2023-05-16T21:15:32.017Z,4.88
2023-05-16T21:17:36.427Z,4.82
2023-05-16T21:19:56.537Z,5.90
2023-05-16T21:21:58.149Z,5.00
2023-05-16T21:24:02.658Z,5.22
2023-05-16T21:26:04.140Z,6.22
2023-05-16T21:28:08.445Z,5.00
2023-05-16T21:30:10.184Z,5.10
2023-05-16T21:32:15.497Z,5.05
2023-05-16T21:34:20.625Z,4.63
2023-05-16T21:36:24.981Z,5.22
2023-05-16T21:38:29.284Z,4.43
2023-05-16T21:40:33.660Z,3.83
2023-05-16T21:42:35.493Z,4.90
2023-05-16T21:44:39.889Z,4.38
2023-05-16T21:47:00.140Z,4.00
2023-05-16T21:51:08.525Z,5.10
2023-05-16T21:53:12.930Z,4.45
2023-05-16T21:55:14.457Z,5.35
2023-05-16T21:59:22.782Z,4.68
2023-05-16T22:01:26.310Z,4.13
2023-05-16T22:03:27.864Z,6.10
2023-05-16T22:05:29.674Z,4.72
2023-05-16T22:07:34.103Z,5.32
2023-05-16T22:09:35.851Z,4.50
2023-05-16T22:11:37.392Z,4.35
2023-05-16T22:13:38.931Z,4.78
2023-05-16T22:15:42.474Z,5.38
2023-05-16T22:17:48.012Z,5.13
2023-05-16T22:19:52.575Z,5.03
2023-05-16T22:21:57.029Z,5.22
2023-05-16T22:24:01.219Z,4.82
2023-05-16T22:26:05.672Z,5.00
2023-05-16T22:28:07.117Z,6.25
2023-05-16T22:30:11.778Z,4.88
2023-05-16T22:32:15.900Z,10.45
2023-05-16T22:34:39.610Z,7.30
2023-05-16T22:36:42.656Z,6.10
2023-05-16T22:38:44.229Z,5.00
2023-05-16T22:42:52.448Z,5.63
2023-05-16T22:44:53.939Z,5.13
2023-05-16T22:46:55.723Z,5.53
2023-05-16T22:48:57.224Z,4.45
2023-05-16T22:51:18.039Z,5.38
2023-05-16T22:53:19.488Z,5.18
2023-05-16T22:55:23.594Z,5.15
2023-05-16T22:57:27.853Z,5.47
2023-05-16T22:59:29.681Z,4.82
2023-05-16T23:01:31.130Z,4.60
2023-05-16T23:03:35.561Z,5.03
2023-05-16T23:05:40.127Z,5.68
2023-05-16T23:07:41.571Z,4.97
2023-05-16T23:09:43.417Z,5.28
2023-05-16T23:11:47.384Z,5.10
2023-05-16T23:13:51.662Z,5.32
2023-05-16T23:15:56.327Z,6.18
2023-05-16T23:17:58.319Z,5.05
2023-05-16T23:20:02.948Z,5.30
2023-05-16T23:22:07.525Z,7.53
2023-05-16T23:24:08.980Z,6.32
2023-05-16T23:28:18.906Z,6.00
2023-05-16T23:30:39.103Z,5.43
2023-05-16T23:32:59.138Z,6.18
2023-05-16T23:35:02.097Z,5.00
2023-05-16T23:37:08.202Z,5.50
2023-05-16T23:39:11.483Z,5.25
2023-05-16T23:41:17.826Z,6.45
2023-05-16T23:43:23.593Z,6.05
2023-05-16T23:45:45.581Z,5.53
2023-05-16T23:47:51.906Z,7.80
2023-05-16T23:49:58.644Z,5.30
2023-05-16T23:52:02.213Z,5.20
2023-05-16T23:54:05.616Z,5.43
2023-05-16T23:56:08.805Z,5.53
2023-05-16T23:58:15.401Z,6.30
